GVAC

Amílcar Cabral International Airport

Espargos, Cape Verde
TAF GVAC 170500Z 1706/1812 05010KT 9999 SCT014
Issued Valid From Valid To
Nov-17 @ 05:00 UTC
(4 hours ago)
Nov-17 @ 06:00 UTC
(3 hours ago)
Nov-18 @ 12:00 UTC
(-1 days ago)
Nov-17 @ 06:00 to Nov-18 @ 12:00
TAF GVAC 170500Z 1706/1812 05010KT 9999 SCT014
Wind Visibility Clouds
50° at 10 knots 10,000+ meters
  • Scattered at 1,400' AGL
TAF GVAC 170500Z 1706/1812 05010KT 9999 SCT014
Issued Nov-17 @ 05:00 UTC
(4 hours ago)
Valid From Nov-17 @ 06:00 UTC
(3 hours ago)
Valid To Nov-18 @ 12:00 UTC
(-1 days ago)
Nov-17 @ 06:00 - Nov-18 @ 12:00
Wind Visibility
50° at 10 knots 10,000+ meters
Clouds
  • Scattered at 1,400' AGL